sensor_id;sensor_type;location;lat;lon;timestamp;temperature;humidity
41344;DHT22;27089;50.022;7.604;2022-10-31T00:00:15;9.50;99.90
41344;DHT22;27089;50.022;7.604;2022-10-31T00:02:42;9.40;99.90
41344;DHT22;27089;50.022;7.604;2022-10-31T00:05:09;9.40;99.90
41344;DHT22;27089;50.022;7.604;2022-10-31T00:07:36;9.40;99.90
41344;DHT22;27089;50.022;7.604;2022-10-31T00:10:04;9.40;99.90
41344;DHT22;27089;50.022;7.604;2022-10-31T00:12:31;9.50;99.90
41344;DHT22;27089;50.022;7.604;2022-10-31T00:15:00;9.50;99.90
41344;DHT22;27089;50.022;7.604;2022-10-31T00:17:27;9.50;99.90
41344;DHT22;27089;50.022;7.604;2022-10-31T00:19:54;9.50;99.90
41344;DHT22;27089;50.022;7.604;2022-10-31T00:22:22;9.40;99.90
41344;DHT22;27089;50.022;7.604;2022-10-31T00:24:49;9.50;99.90
41344;DHT22;27089;50.022;7.604;2022-10-31T00:27:16;9.40;99.90
41344;DHT22;27089;50.022;7.604;2022-10-31T00:29:43;9.40;99.90
41344;DHT22;27089;50.022;7.604;2022-10-31T00:32:11;9.30;99.90
41344;DHT22;27089;50.022;7.604;2022-10-31T00:34:38;9.40;99.90
41344;DHT22;27089;50.022;7.604;2022-10-31T00:37:05;9.40;99.90
41344;DHT22;27089;50.022;7.604;2022-10-31T00:39:31;9.40;99.90
41344;DHT22;27089;50.022;7.604;2022-10-31T00:41:58;9.40;99.90
41344;DHT22;27089;50.022;7.604;2022-10-31T00:44:25;9.40;99.90
41344;DHT22;27089;50.022;7.604;2022-10-31T00:46:52;9.40;99.90
41344;DHT22;27089;50.022;7.604;2022-10-31T00:49:20;9.40;99.90
41344;DHT22;27089;50.022;7.604;2022-10-31T00:51:48;9.30;99.90
41344;DHT22;27089;50.022;7.604;2022-10-31T00:54:15;9.30;99.90
41344;DHT22;27089;50.022;7.604;2022-10-31T00:56:42;9.40;99.90
41344;DHT22;27089;50.022;7.604;2022-10-31T00:59:09;9.30;99.90
41344;DHT22;27089;50.022;7.604;2022-10-31T01:01:36;9.40;99.90
41344;DHT22;27089;50.022;7.604;2022-10-31T01:04:03;9.40;99.90
41344;DHT22;27089;50.022;7.604;2022-10-31T01:06:31;9.40;99.90
41344;DHT22;27089;50.022;7.604;2022-10-31T01:08:58;9.40;99.90
41344;DHT22;27089;50.022;7.604;2022-10-31T01:11:25;9.50;99.90
41344;DHT22;27089;50.022;7.604;2022-10-31T01:13:53;9.50;99.90
41344;DHT22;27089;50.022;7.604;2022-10-31T01:16:22;9.50;99.90
41344;DHT22;27089;50.022;7.604;2022-10-31T01:18:49;9.50;99.90
41344;DHT22;27089;50.022;7.604;2022-10-31T01:21:18;9.50;99.90
41344;DHT22;27089;50.022;7.604;2022-10-31T01:23:46;9.50;99.90
41344;DHT22;27089;50.022;7.604;2022-10-31T01:26:15;9.50;99.90
41344;DHT22;27089;50.022;7.604;2022-10-31T01:28:45;9.60;99.90
41344;DHT22;27089;50.022;7.604;2022-10-31T01:31:13;9.60;99.90
41344;DHT22;27089;50.022;7.604;2022-10-31T01:33:40;9.60;99.90
41344;DHT22;27089;50.022;7.604;2022-10-31T01:36:18;9.60;99.90
41344;DHT22;27089;50.022;7.604;2022-10-31T01:38:47;9.50;99.90
41344;DHT22;27089;50.022;7.604;2022-10-31T01:41:16;9.60;99.90
41344;DHT22;27089;50.022;7.604;2022-10-31T01:43:45;9.50;99.90
41344;DHT22;27089;50.022;7.604;2022-10-31T01:46:14;9.50;99.90
41344;DHT22;27089;50.022;7.604;2022-10-31T01:48:42;9.60;99.90
41344;DHT22;27089;50.022;7.604;2022-10-31T01:51:11;9.70;99.90
41344;DHT22;27089;50.022;7.604;2022-10-31T01:53:39;9.70;99.90
41344;DHT22;27089;50.022;7.604;2022-10-31T01:56:09;9.70;99.90
41344;DHT22;27089;50.022;7.604;2022-10-31T01:58:36;9.70;99.90
41344;DHT22;27089;50.022;7.604;2022-10-31T02:01:03;9.60;99.90
41344;DHT22;27089;50.022;7.604;2022-10-31T02:03:31;9.60;99.90
41344;DHT22;27089;50.022;7.604;2022-10-31T02:05:58;9.60;99.90
41344;DHT22;27089;50.022;7.604;2022-10-31T02:08:28;9.60;99.90
41344;DHT22;27089;50.022;7.604;2022-10-31T02:10:56;9.70;99.90
41344;DHT22;27089;50.022;7.604;2022-10-31T02:13:25;9.80;99.90
41344;DHT22;27089;50.022;7.604;2022-10-31T02:15:54;9.90;99.90
41344;DHT22;27089;50.022;7.604;2022-10-31T02:18:22;9.90;99.90
41344;DHT22;27089;50.022;7.604;2022-10-31T02:20:58;9.90;99.90
41344;DHT22;27089;50.022;7.604;2022-10-31T02:26:45;9.90;99.90
41344;DHT22;27089;50.022;7.604;2022-10-31T02:32:25;9.90;99.90
41344;DHT22;27089;50.022;7.604;2022-10-31T02:34:59;9.90;99.90
41344;DHT22;27089;50.022;7.604;2022-10-31T02:37:34;9.90;99.90
41344;DHT22;27089;50.022;7.604;2022-10-31T02:40:09;9.90;99.90
41344;DHT22;27089;50.022;7.604;2022-10-31T02:42:41;9.80;99.90
41344;DHT22;27089;50.022;7.604;2022-10-31T02:45:14;9.80;99.90
41344;DHT22;27089;50.022;7.604;2022-10-31T02:47:46;9.70;99.90
41344;DHT22;27089;50.022;7.604;2022-10-31T02:50:19;9.70;99.90
41344;DHT22;27089;50.022;7.604;2022-10-31T02:52:50;9.70;99.90
41344;DHT22;27089;50.022;7.604;2022-10-31T02:55:42;9.70;99.90
41344;DHT22;27089;50.022;7.604;2022-10-31T02:58:13;9.80;99.90
41344;DHT22;27089;50.022;7.604;2022-10-31T03:00:52;9.80;99.90
41344;DHT22;27089;50.022;7.604;2022-10-31T03:03:26;9.80;99.90
41344;DHT22;27089;50.022;7.604;2022-10-31T03:06:00;9.80;99.90
41344;DHT22;27089;50.022;7.604;2022-10-31T03:08:34;9.80;99.90
41344;DHT22;27089;50.022;7.604;2022-10-31T03:11:03;9.80;99.90
41344;DHT22;27089;50.022;7.604;2022-10-31T03:13:35;9.70;99.90
41344;DHT22;27089;50.022;7.604;2022-10-31T03:16:10;9.70;99.90
41344;DHT22;27089;50.022;7.604;2022-10-31T03:18:46;9.70;99.90
41344;DHT22;27089;50.022;7.604;2022-10-31T03:21:19;9.80;99.90
41344;DHT22;27089;50.022;7.604;2022-10-31T03:23:49;9.80;99.90
41344;DHT22;27089;50.022;7.604;2022-10-31T03:26:17;9.80;99.90
41344;DHT22;27089;50.022;7.604;2022-10-31T03:28:47;9.80;99.90
41344;DHT22;27089;50.022;7.604;2022-10-31T03:31:18;9.80;99.90
41344;DHT22;27089;50.022;7.604;2022-10-31T03:33:47;9.80;99.90
41344;DHT22;27089;50.022;7.604;2022-10-31T03:36:17;9.80;99.90
41344;DHT22;27089;50.022;7.604;2022-10-31T03:38:45;9.70;99.90
41344;DHT22;27089;50.022;7.604;2022-10-31T03:41:17;9.70;99.90
41344;DHT22;27089;50.022;7.604;2022-10-31T03:43:48;9.70;99.90
41344;DHT22;27089;50.022;7.604;2022-10-31T03:46:19;9.80;99.90
41344;DHT22;27089;50.022;7.604;2022-10-31T03:48:48;9.80;99.90
41344;DHT22;27089;50.022;7.604;2022-10-31T03:51:18;9.80;99.90
41344;DHT22;27089;50.022;7.604;2022-10-31T03:53:50;9.80;99.90
41344;DHT22;27089;50.022;7.604;2022-10-31T03:56:27;9.80;99.90
41344;DHT22;27089;50.022;7.604;2022-10-31T03:59:00;9.90;99.90
41344;DHT22;27089;50.022;7.604;2022-10-31T04:01:30;9.90;99.90
41344;DHT22;27089;50.022;7.604;2022-10-31T04:04:00;9.90;99.90
41344;DHT22;27089;50.022;7.604;2022-10-31T04:06:27;9.80;99.90
41344;DHT22;27089;50.022;7.604;2022-10-31T04:08:58;9.80;99.90
41344;DHT22;27089;50.022;7.604;2022-10-31T04:11:30;9.80;99.90
41344;DHT22;27089;50.022;7.604;2022-10-31T04:13:59;9.80;99.90
41344;DHT22;27089;50.022;7.604;2022-10-31T04:16:28;9.70;99.90
41344;DHT22;27089;50.022;7.604;2022-10-31T04:18:55;9.70;99.90
41344;DHT22;27089;50.022;7.604;2022-10-31T04:21:29;9.70;99.90
41344;DHT22;27089;50.022;7.604;2022-10-31T04:23:56;9.70;99.90
41344;DHT22;27089;50.022;7.604;2022-10-31T04:26:24;9.70;99.90
41344;DHT22;27089;50.022;7.604;2022-10-31T04:28:51;9.60;99.90
41344;DHT22;27089;50.022;7.604;2022-10-31T04:31:18;9.60;99.90
41344;DHT22;27089;50.022;7.604;2022-10-31T04:33:45;9.60;99.90
41344;DHT22;27089;50.022;7.604;2022-10-31T04:36:12;9.50;99.90
41344;DHT22;27089;50.022;7.604;2022-10-31T04:38:40;9.50;99.90
41344;DHT22;27089;50.022;7.604;2022-10-31T04:41:07;9.50;99.90
41344;DHT22;27089;50.022;7.604;2022-10-31T04:43:34;9.50;99.90
41344;DHT22;27089;50.022;7.604;2022-10-31T04:46:01;9.50;99.90
41344;DHT22;27089;50.022;7.604;2022-10-31T04:48:28;9.50;99.90
41344;DHT22;27089;50.022;7.604;2022-10-31T04:50:58;9.50;99.90
41344;DHT22;27089;50.022;7.604;2022-10-31T04:53:26;9.40;99.90
41344;DHT22;27089;50.022;7.604;2022-10-31T04:55:54;9.40;99.90
41344;DHT22;27089;50.022;7.604;2022-10-31T04:58:21;9.40;99.90
41344;DHT22;27089;50.022;7.604;2022-10-31T05:00:51;9.40;99.90
41344;DHT22;27089;50.022;7.604;2022-10-31T05:03:18;9.40;99.90
41344;DHT22;27089;50.022;7.604;2022-10-31T05:05:45;9.40;99.90
41344;DHT22;27089;50.022;7.604;2022-10-31T05:08:12;9.40;99.90
41344;DHT22;27089;50.022;7.604;2022-10-31T05:10:39;9.40;99.90
41344;DHT22;27089;50.022;7.604;2022-10-31T05:13:08;9.40;99.90
41344;DHT22;27089;50.022;7.604;2022-10-31T05:15:35;9.30;99.90
41344;DHT22;27089;50.022;7.604;2022-10-31T05:18:02;9.30;99.90
41344;DHT22;27089;50.022;7.604;2022-10-31T05:20:30;9.30;99.90
41344;DHT22;27089;50.022;7.604;2022-10-31T05:22:58;9.30;99.90
41344;DHT22;27089;50.022;7.604;2022-10-31T05:25:27;9.30;99.90
41344;DHT22;27089;50.022;7.604;2022-10-31T05:27:55;9.30;99.90
41344;DHT22;27089;50.022;7.604;2022-10-31T05:30:26;9.20;99.90
41344;DHT22;27089;50.022;7.604;2022-10-31T05:32:53;9.20;99.90
41344;DHT22;27089;50.022;7.604;2022-10-31T05:35:22;9.10;99.90
41344;DHT22;27089;50.022;7.604;2022-10-31T05:37:49;9.10;99.90
41344;DHT22;27089;50.022;7.604;2022-10-31T05:40:17;9.20;99.90
41344;DHT22;27089;50.022;7.604;2022-10-31T05:42:45;9.30;99.90
41344;DHT22;27089;50.022;7.604;2022-10-31T05:45:13;9.40;99.90
41344;DHT22;27089;50.022;7.604;2022-10-31T05:47:42;9.40;99.90
41344;DHT22;27089;50.022;7.604;2022-10-31T05:50:10;9.40;99.90
41344;DHT22;27089;50.022;7.604;2022-10-31T05:52:37;9.50;99.90
41344;DHT22;27089;50.022;7.604;2022-10-31T05:55:04;9.50;99.90
41344;DHT22;27089;50.022;7.604;2022-10-31T05:57:32;9.50;99.90
41344;DHT22;27089;50.022;7.604;2022-10-31T06:00:00;9.50;99.90
41344;DHT22;27089;50.022;7.604;2022-10-31T06:02:28;9.40;99.90
41344;DHT22;27089;50.022;7.604;2022-10-31T06:05:01;9.30;99.90
41344;DHT22;27089;50.022;7.604;2022-10-31T06:07:32;9.30;99.90
41344;DHT22;27089;50.022;7.604;2022-10-31T06:09:59;9.20;99.90
41344;DHT22;27089;50.022;7.604;2022-10-31T06:12:26;9.20;99.90
41344;DHT22;27089;50.022;7.604;2022-10-31T06:14:53;9.10;99.90
41344;DHT22;27089;50.022;7.604;2022-10-31T06:17:20;9.10;99.90
41344;DHT22;27089;50.022;7.604;2022-10-31T06:19:47;9.10;99.90
41344;DHT22;27089;50.022;7.604;2022-10-31T06:22:16;9.00;99.90
41344;DHT22;27089;50.022;7.604;2022-10-31T06:24:44;9.00;99.90
41344;DHT22;27089;50.022;7.604;2022-10-31T06:27:13;9.00;99.90
41344;DHT22;27089;50.022;7.604;2022-10-31T06:29:40;9.00;99.90
41344;DHT22;27089;50.022;7.604;2022-10-31T06:32:11;9.00;99.90
41344;DHT22;27089;50.022;7.604;2022-10-31T06:34:39;9.00;99.90
41344;DHT22;27089;50.022;7.604;2022-10-31T06:37:06;9.10;99.90
41344;DHT22;27089;50.022;7.604;2022-10-31T06:39:34;9.10;99.90
41344;DHT22;27089;50.022;7.604;2022-10-31T06:42:02;9.10;99.90
41344;DHT22;27089;50.022;7.604;2022-10-31T06:44:29;9.20;99.90
41344;DHT22;27089;50.022;7.604;2022-10-31T06:46:56;9.20;99.90
41344;DHT22;27089;50.022;7.604;2022-10-31T06:49:23;9.20;99.90
41344;DHT22;27089;50.022;7.604;2022-10-31T06:51:50;9.30;99.90
41344;DHT22;27089;50.022;7.604;2022-10-31T06:54:18;9.40;99.90
41344;DHT22;27089;50.022;7.604;2022-10-31T06:56:47;9.50;99.90
41344;DHT22;27089;50.022;7.604;2022-10-31T06:59:14;9.50;99.90
41344;DHT22;27089;50.022;7.604;2022-10-31T07:01:42;9.60;99.90
41344;DHT22;27089;50.022;7.604;2022-10-31T07:04:09;9.70;99.90
41344;DHT22;27089;50.022;7.604;2022-10-31T07:06:36;9.90;99.90
41344;DHT22;27089;50.022;7.604;2022-10-31T07:09:03;10.00;99.90
41344;DHT22;27089;50.022;7.604;2022-10-31T07:11:30;10.10;99.90
41344;DHT22;27089;50.022;7.604;2022-10-31T07:13:59;10.20;99.90
41344;DHT22;27089;50.022;7.604;2022-10-31T07:16:26;10.30;99.90
41344;DHT22;27089;50.022;7.604;2022-10-31T07:18:53;10.40;99.90
41344;DHT22;27089;50.022;7.604;2022-10-31T07:21:20;10.50;99.90
41344;DHT22;27089;50.022;7.604;2022-10-31T07:23:47;10.50;99.90
41344;DHT22;27089;50.022;7.604;2022-10-31T07:26:15;10.60;99.90
41344;DHT22;27089;50.022;7.604;2022-10-31T07:28:42;10.70;99.90
41344;DHT22;27089;50.022;7.604;2022-10-31T07:31:10;10.70;99.90
41344;DHT22;27089;50.022;7.604;2022-10-31T07:33:37;10.80;99.90
41344;DHT22;27089;50.022;7.604;2022-10-31T07:36:05;11.00;99.90
41344;DHT22;27089;50.022;7.604;2022-10-31T07:38:32;11.00;99.90
41344;DHT22;27089;50.022;7.604;2022-10-31T07:40:59;11.10;99.90
41344;DHT22;27089;50.022;7.604;2022-10-31T07:43:26;11.10;99.90
41344;DHT22;27089;50.022;7.604;2022-10-31T07:45:53;11.10;99.90
41344;DHT22;27089;50.022;7.604;2022-10-31T07:48:22;11.20;99.90
41344;DHT22;27089;50.022;7.604;2022-10-31T07:50:49;11.20;99.90
41344;DHT22;27089;50.022;7.604;2022-10-31T07:53:16;11.20;99.90
41344;DHT22;27089;50.022;7.604;2022-10-31T07:55:43;11.30;99.90
41344;DHT22;27089;50.022;7.604;2022-10-31T07:58:13;11.30;99.90
41344;DHT22;27089;50.022;7.604;2022-10-31T08:00:41;11.40;99.90
41344;DHT22;27089;50.022;7.604;2022-10-31T08:03:10;11.50;99.90
41344;DHT22;27089;50.022;7.604;2022-10-31T08:05:39;11.60;99.90
41344;DHT22;27089;50.022;7.604;2022-10-31T08:08:06;11.80;99.90
41344;DHT22;27089;50.022;7.604;2022-10-31T08:10:34;11.90;99.90
41344;DHT22;27089;50.022;7.604;2022-10-31T08:13:02;12.10;99.90
41344;DHT22;27089;50.022;7.604;2022-10-31T08:15:30;12.30;99.90
41344;DHT22;27089;50.022;7.604;2022-10-31T08:17:57;12.40;99.90
41344;DHT22;27089;50.022;7.604;2022-10-31T08:20:24;12.50;99.90
41344;DHT22;27089;50.022;7.604;2022-10-31T08:22:56;12.50;99.90
41344;DHT22;27089;50.022;7.604;2022-10-31T08:25:24;12.60;99.90
41344;DHT22;27089;50.022;7.604;2022-10-31T08:27:52;12.80;99.90
41344;DHT22;27089;50.022;7.604;2022-10-31T08:30:20;12.90;99.90
41344;DHT22;27089;50.022;7.604;2022-10-31T08:32:50;13.00;99.90
41344;DHT22;27089;50.022;7.604;2022-10-31T08:35:23;13.10;99.90
41344;DHT22;27089;50.022;7.604;2022-10-31T08:37:52;13.20;99.90
41344;DHT22;27089;50.022;7.604;2022-10-31T08:40:22;13.40;99.90
41344;DHT22;27089;50.022;7.604;2022-10-31T08:42:55;13.60;99.90
41344;DHT22;27089;50.022;7.604;2022-10-31T08:45:23;13.80;99.90
41344;DHT22;27089;50.022;7.604;2022-10-31T08:47:50;14.20;99.90
41344;DHT22;27089;50.022;7.604;2022-10-31T08:50:18;14.40;99.90
41344;DHT22;27089;50.022;7.604;2022-10-31T08:52:44;14.60;99.90
41344;DHT22;27089;50.022;7.604;2022-10-31T08:55:13;14.80;99.90
41344;DHT22;27089;50.022;7.604;2022-10-31T08:57:41;15.00;99.90
41344;DHT22;27089;50.022;7.604;2022-10-31T09:00:09;15.20;99.90
41344;DHT22;27089;50.022;7.604;2022-10-31T09:02:36;15.30;99.90
41344;DHT22;27089;50.022;7.604;2022-10-31T09:05:04;15.40;99.90
41344;DHT22;27089;50.022;7.604;2022-10-31T09:07:39;15.50;99.90
41344;DHT22;27089;50.022;7.604;2022-10-31T09:10:06;15.50;99.90
41344;DHT22;27089;50.022;7.604;2022-10-31T09:12:33;15.60;99.90
41344;DHT22;27089;50.022;7.604;2022-10-31T09:15:00;15.60;99.90
41344;DHT22;27089;50.022;7.604;2022-10-31T09:17:27;15.60;99.90
41344;DHT22;27089;50.022;7.604;2022-10-31T09:19:54;15.60;99.90
41344;DHT22;27089;50.022;7.604;2022-10-31T09:22:22;15.60;99.90
41344;DHT22;27089;50.022;7.604;2022-10-31T09:24:51;15.70;99.90
41344;DHT22;27089;50.022;7.604;2022-10-31T09:27:17;15.70;99.90
41344;DHT22;27089;50.022;7.604;2022-10-31T09:29:45;15.80;99.90
41344;DHT22;27089;50.022;7.604;2022-10-31T09:32:12;15.80;99.90
41344;DHT22;27089;50.022;7.604;2022-10-31T09:34:39;15.80;99.90
41344;DHT22;27089;50.022;7.604;2022-10-31T09:37:06;15.90;99.90
41344;DHT22;27089;50.022;7.604;2022-10-31T09:39:33;15.80;99.90
41344;DHT22;27089;50.022;7.604;2022-10-31T09:42:23;15.80;99.90
41344;DHT22;27089;50.022;7.604;2022-10-31T09:45:02;15.90;99.90
41344;DHT22;27089;50.022;7.604;2022-10-31T09:47:40;15.90;99.90
41344;DHT22;27089;50.022;7.604;2022-10-31T09:50:15;15.90;99.90
41344;DHT22;27089;50.022;7.604;2022-10-31T09:52:53;16.00;99.90
41344;DHT22;27089;50.022;7.604;2022-10-31T09:55:25;16.00;99.90
41344;DHT22;27089;50.022;7.604;2022-10-31T09:57:55;16.00;99.90
41344;DHT22;27089;50.022;7.604;2022-10-31T10:00:23;16.10;99.90
41344;DHT22;27089;50.022;7.604;2022-10-31T10:02:54;16.10;99.90
41344;DHT22;27089;50.022;7.604;2022-10-31T10:05:28;16.10;99.90
41344;DHT22;27089;50.022;7.604;2022-10-31T10:08:03;16.10;99.90
41344;DHT22;27089;50.022;7.604;2022-10-31T10:10:44;16.10;99.90
41344;DHT22;27089;50.022;7.604;2022-10-31T10:13:27;16.10;99.90
41344;DHT22;27089;50.022;7.604;2022-10-31T10:16:06;16.10;99.90
41344;DHT22;27089;50.022;7.604;2022-10-31T10:18:48;16.20;99.90
41344;DHT22;27089;50.022;7.604;2022-10-31T10:21:28;16.30;99.90
41344;DHT22;27089;50.022;7.604;2022-10-31T10:24:09;16.30;99.90
41344;DHT22;27089;50.022;7.604;2022-10-31T10:26:41;16.20;99.90
41344;DHT22;27089;50.022;7.604;2022-10-31T10:29:25;16.20;99.90
41344;DHT22;27089;50.022;7.604;2022-10-31T10:31:54;16.20;99.90
41344;DHT22;27089;50.022;7.604;2022-10-31T10:34:26;16.10;99.90
41344;DHT22;27089;50.022;7.604;2022-10-31T10:36:57;16.20;99.90
41344;DHT22;27089;50.022;7.604;2022-10-31T10:39:29;16.20;99.90
41344;DHT22;27089;50.022;7.604;2022-10-31T10:41:58;16.20;99.90
41344;DHT22;27089;50.022;7.604;2022-10-31T10:44:47;16.30;99.90
41344;DHT22;27089;50.022;7.604;2022-10-31T10:47:36;16.30;99.90
41344;DHT22;27089;50.022;7.604;2022-10-31T10:50:11;16.40;99.90
41344;DHT22;27089;50.022;7.604;2022-10-31T10:52:45;16.40;99.90
41344;DHT22;27089;50.022;7.604;2022-10-31T10:55:18;16.50;99.90
41344;DHT22;27089;50.022;7.604;2022-10-31T10:57:55;16.50;99.90
41344;DHT22;27089;50.022;7.604;2022-10-31T11:00:25;16.50;99.90
41344;DHT22;27089;50.022;7.604;2022-10-31T11:02:53;16.50;99.90
41344;DHT22;27089;50.022;7.604;2022-10-31T11:05:24;16.40;99.90
41344;DHT22;27089;50.022;7.604;2022-10-31T11:07:52;16.30;99.90
41344;DHT22;27089;50.022;7.604;2022-10-31T11:10:19;16.40;99.90
41344;DHT22;27089;50.022;7.604;2022-10-31T11:13:00;16.40;99.90
41344;DHT22;27089;50.022;7.604;2022-10-31T11:15:31;16.40;99.90
41344;DHT22;27089;50.022;7.604;2022-10-31T11:17:59;16.50;99.90
41344;DHT22;27089;50.022;7.604;2022-10-31T11:20:30;16.50;99.90
41344;DHT22;27089;50.022;7.604;2022-10-31T11:23:03;16.50;99.90
41344;DHT22;27089;50.022;7.604;2022-10-31T11:25:30;16.60;99.90
41344;DHT22;27089;50.022;7.604;2022-10-31T11:28:01;16.60;99.90
41344;DHT22;27089;50.022;7.604;2022-10-31T11:30:35;16.60;99.90
41344;DHT22;27089;50.022;7.604;2022-10-31T11:33:03;16.60;99.90
41344;DHT22;27089;50.022;7.604;2022-10-31T11:35:31;16.50;99.90
41344;DHT22;27089;50.022;7.604;2022-10-31T11:37:58;16.40;99.90
41344;DHT22;27089;50.022;7.604;2022-10-31T11:40:27;16.40;99.90
41344;DHT22;27089;50.022;7.604;2022-10-31T11:42:56;16.30;99.90
41344;DHT22;27089;50.022;7.604;2022-10-31T11:45:33;16.20;99.90
41344;DHT22;27089;50.022;7.604;2022-10-31T11:48:12;16.20;99.90
41344;DHT22;27089;50.022;7.604;2022-10-31T11:50:42;16.20;99.90
41344;DHT22;27089;50.022;7.604;2022-10-31T11:53:15;16.10;99.90
41344;DHT22;27089;50.022;7.604;2022-10-31T11:55:44;16.10;99.90
41344;DHT22;27089;50.022;7.604;2022-10-31T11:58:21;16.10;99.90
41344;DHT22;27089;50.022;7.604;2022-10-31T12:00:52;16.10;99.90
41344;DHT22;27089;50.022;7.604;2022-10-31T12:03:41;16.10;99.90
41344;DHT22;27089;50.022;7.604;2022-10-31T12:06:13;16.10;99.90
41344;DHT22;27089;50.022;7.604;2022-10-31T12:08:42;16.10;99.90
41344;DHT22;27089;50.022;7.604;2022-10-31T12:11:34;16.20;99.90
41344;DHT22;27089;50.022;7.604;2022-10-31T12:14:15;16.30;99.90
41344;DHT22;27089;50.022;7.604;2022-10-31T12:16:51;16.40;99.90
41344;DHT22;27089;50.022;7.604;2022-10-31T12:19:27;16.60;99.90
41344;DHT22;27089;50.022;7.604;2022-10-31T12:22:06;16.70;99.90
41344;DHT22;27089;50.022;7.604;2022-10-31T12:25:10;16.90;99.90
41344;DHT22;27089;50.022;7.604;2022-10-31T12:28:03;17.00;99.90
41344;DHT22;27089;50.022;7.604;2022-10-31T12:30:43;17.00;99.90
41344;DHT22;27089;50.022;7.604;2022-10-31T12:33:30;17.10;99.90
41344;DHT22;27089;50.022;7.604;2022-10-31T12:36:12;17.20;99.90
41344;DHT22;27089;50.022;7.604;2022-10-31T12:38:55;17.30;99.90
41344;DHT22;27089;50.022;7.604;2022-10-31T12:41:37;17.30;99.90
41344;DHT22;27089;50.022;7.604;2022-10-31T12:44:10;17.30;99.90
41344;DHT22;27089;50.022;7.604;2022-10-31T12:46:55;17.20;99.90
41344;DHT22;27089;50.022;7.604;2022-10-31T12:49:36;17.20;99.90
41344;DHT22;27089;50.022;7.604;2022-10-31T12:52:17;17.20;99.90
41344;DHT22;27089;50.022;7.604;2022-10-31T12:54:55;17.20;99.90
41344;DHT22;27089;50.022;7.604;2022-10-31T12:57:32;17.20;99.90
41344;DHT22;27089;50.022;7.604;2022-10-31T13:00:03;17.30;99.90
41344;DHT22;27089;50.022;7.604;2022-10-31T13:02:37;17.20;99.90
41344;DHT22;27089;50.022;7.604;2022-10-31T13:05:14;17.10;99.90
41344;DHT22;27089;50.022;7.604;2022-10-31T13:07:44;17.00;99.90
41344;DHT22;27089;50.022;7.604;2022-10-31T13:10:18;17.00;99.90
41344;DHT22;27089;50.022;7.604;2022-10-31T13:12:49;17.00;99.90
41344;DHT22;27089;50.022;7.604;2022-10-31T13:15:19;17.00;99.90
41344;DHT22;27089;50.022;7.604;2022-10-31T13:17:48;17.00;99.90
41344;DHT22;27089;50.022;7.604;2022-10-31T13:20:23;17.00;99.90
41344;DHT22;27089;50.022;7.604;2022-10-31T13:22:53;17.00;99.90
41344;DHT22;27089;50.022;7.604;2022-10-31T13:25:24;17.00;99.90
41344;DHT22;27089;50.022;7.604;2022-10-31T13:27:55;17.00;99.90
41344;DHT22;27089;50.022;7.604;2022-10-31T13:30:25;17.00;99.90
41344;DHT22;27089;50.022;7.604;2022-10-31T13:32:58;16.90;99.90
41344;DHT22;27089;50.022;7.604;2022-10-31T13:35:32;16.90;99.90
41344;DHT22;27089;50.022;7.604;2022-10-31T13:38:11;16.90;99.90
41344;DHT22;27089;50.022;7.604;2022-10-31T13:40:45;16.90;99.90
41344;DHT22;27089;50.022;7.604;2022-10-31T13:43:23;16.90;99.90
41344;DHT22;27089;50.022;7.604;2022-10-31T13:45:54;16.90;99.90
41344;DHT22;27089;50.022;7.604;2022-10-31T13:48:36;16.90;99.90
41344;DHT22;27089;50.022;7.604;2022-10-31T13:51:08;16.90;99.90
41344;DHT22;27089;50.022;7.604;2022-10-31T13:53:37;17.00;99.90
41344;DHT22;27089;50.022;7.604;2022-10-31T13:56:16;17.00;99.90
41344;DHT22;27089;50.022;7.604;2022-10-31T14:01:47;17.00;99.90
41344;DHT22;27089;50.022;7.604;2022-10-31T14:04:17;17.00;99.90
41344;DHT22;27089;50.022;7.604;2022-10-31T14:06:56;16.90;99.90
41344;DHT22;27089;50.022;7.604;2022-10-31T14:09:28;16.90;99.90
41344;DHT22;27089;50.022;7.604;2022-10-31T14:11:59;16.90;99.90
41344;DHT22;27089;50.022;7.604;2022-10-31T14:14:32;16.90;99.90
41344;DHT22;27089;50.022;7.604;2022-10-31T14:17:00;16.90;99.90
41344;DHT22;27089;50.022;7.604;2022-10-31T14:19:28;16.90;99.90
41344;DHT22;27089;50.022;7.604;2022-10-31T14:21:56;16.90;99.90
41344;DHT22;27089;50.022;7.604;2022-10-31T14:24:33;17.00;99.90
41344;DHT22;27089;50.022;7.604;2022-10-31T14:27:01;17.00;99.90
41344;DHT22;27089;50.022;7.604;2022-10-31T14:29:30;17.10;99.90
41344;DHT22;27089;50.022;7.604;2022-10-31T14:32:02;17.10;99.90
41344;DHT22;27089;50.022;7.604;2022-10-31T14:34:34;17.10;99.90
41344;DHT22;27089;50.022;7.604;2022-10-31T14:37:16;16.90;99.90
41344;DHT22;27089;50.022;7.604;2022-10-31T14:40:14;16.80;99.90
41344;DHT22;27089;50.022;7.604;2022-10-31T14:43:11;16.70;99.90
41344;DHT22;27089;50.022;7.604;2022-10-31T14:45:47;16.60;99.90
41344;DHT22;27089;50.022;7.604;2022-10-31T14:48:29;16.60;99.90
41344;DHT22;27089;50.022;7.604;2022-10-31T14:51:01;16.60;99.90
41344;DHT22;27089;50.022;7.604;2022-10-31T14:53:33;16.60;99.90
41344;DHT22;27089;50.022;7.604;2022-10-31T14:56:01;16.60;99.90
41344;DHT22;27089;50.022;7.604;2022-10-31T14:58:34;16.60;99.90
41344;DHT22;27089;50.022;7.604;2022-10-31T15:01:02;16.50;99.90
41344;DHT22;27089;50.022;7.604;2022-10-31T15:03:32;16.40;99.90
41344;DHT22;27089;50.022;7.604;2022-10-31T15:06:01;16.40;99.90
41344;DHT22;27089;50.022;7.604;2022-10-31T15:08:34;16.30;99.90
41344;DHT22;27089;50.022;7.604;2022-10-31T15:11:12;16.20;99.90
41344;DHT22;27089;50.022;7.604;2022-10-31T15:13:44;16.10;99.90
41344;DHT22;27089;50.022;7.604;2022-10-31T15:16:14;16.10;99.90
41344;DHT22;27089;50.022;7.604;2022-10-31T15:18:53;16.00;99.90
41344;DHT22;27089;50.022;7.604;2022-10-31T15:21:22;16.00;99.90
41344;DHT22;27089;50.022;7.604;2022-10-31T15:23:53;16.00;99.90
41344;DHT22;27089;50.022;7.604;2022-10-31T15:26:22;15.90;99.90
41344;DHT22;27089;50.022;7.604;2022-10-31T15:28:59;16.00;99.90
41344;DHT22;27089;50.022;7.604;2022-10-31T15:31:28;15.90;99.90
41344;DHT22;27089;50.022;7.604;2022-10-31T15:34:00;15.90;99.90
41344;DHT22;27089;50.022;7.604;2022-10-31T15:36:28;15.90;99.90
41344;DHT22;27089;50.022;7.604;2022-10-31T15:38:57;15.80;99.90
41344;DHT22;27089;50.022;7.604;2022-10-31T15:41:28;15.80;99.90
41344;DHT22;27089;50.022;7.604;2022-10-31T15:43:59;15.80;99.90
41344;DHT22;27089;50.022;7.604;2022-10-31T15:46:27;15.80;99.90
41344;DHT22;27089;50.022;7.604;2022-10-31T15:48:55;15.80;99.90
41344;DHT22;27089;50.022;7.604;2022-10-31T15:51:27;15.90;99.90
41344;DHT22;27089;50.022;7.604;2022-10-31T15:53:56;15.80;99.90
41344;DHT22;27089;50.022;7.604;2022-10-31T15:56:27;15.70;99.90
41344;DHT22;27089;50.022;7.604;2022-10-31T15:58:56;15.70;99.90
41344;DHT22;27089;50.022;7.604;2022-10-31T16:01:25;15.60;99.90
41344;DHT22;27089;50.022;7.604;2022-10-31T16:04:00;15.50;99.90
41344;DHT22;27089;50.022;7.604;2022-10-31T16:06:28;15.40;99.90
41344;DHT22;27089;50.022;7.604;2022-10-31T16:08:56;15.40;99.90